Time;durP1;ratioP1;P1;durP2;ratioP2;P2;SDS_P1;SDS_P2;PMS_P1;PMS_P2;Temp;Humidity;BMP_temperature;BMP_pressure;BME280_temperature;BME280_humidity;BME280_pressure;Samples;Min_cycle;Max_cycle;Signal;HPM_P1;HPM_P2
2022/12/07 00:01:36;;;;;;;10.40;8.52;;;;;;;;;;5013292;28;20104;-66
2022/12/07 00:04:06;;;;;;;11.13;8.65;;;;;;;;;;5013528;28;20497;-65
2022/12/07 00:06:40;;;;;;;10.98;8.32;;;;;;;;;;4995998;28;20073;-66
2022/12/07 00:09:09;;;;;;;10.73;8.98;;;;;;;;;;5013203;28;20072;-65
2022/12/07 00:11:36;;;;;;;10.63;8.68;;;;;;;;;;4995492;28;20050;-67
2022/12/07 00:14:06;;;;;;;9.52;7.90;;;;;;;;;;5013370;28;20073;-66
2022/12/07 00:16:34;;;;;;;9.82;7.55;;;;;;;;;;4995530;28;20073;-67
2022/12/07 00:19:01;;;;;;;12.20;8.45;;;;;;;;;;5012665;28;20098;-67
2022/12/07 00:21:29;;;;;;;11.60;8.40;;;;;;;;;;5012671;28;20093;-66
2022/12/07 00:23:56;;;;;;;11.50;8.50;;;;;;;;;;5012424;28;20050;-66
2022/12/07 00:26:33;;;;;;;11.35;8.65;;;;;;;;;;5012811;28;20127;-67
2022/12/07 00:29:03;;;;;;;11.20;8.40;;;;;;;;;;5012339;28;20077;-66
2022/12/07 00:31:33;;;;;;;11.70;8.50;;;;;;;;;;5012055;28;20108;-66
2022/12/07 00:34:00;;;;;;;11.75;8.43;;;;;;;;;;5012098;28;20424;-66
2022/12/07 00:36:27;;;;;;;12.70;8.02;;;;;;;;;;5011930;28;20077;-67
2022/12/07 00:38:54;;;;;;;11.43;8.30;;;;;;;;;;5012180;28;20104;-66
2022/12/07 00:41:23;;;;;;;10.45;8.65;;;;;;;;;;4994535;28;20376;-66
2022/12/07 00:43:50;;;;;;;11.85;8.63;;;;;;;;;;5025350;28;20200;-66
2022/12/07 00:46:17;;;;;;;10.70;7.82;;;;;;;;;;5031809;28;20049;-66
2022/12/07 00:48:44;;;;;;;13.30;7.95;;;;;;;;;;5031660;28;20100;-66
2022/12/07 00:51:15;;;;;;;13.20;8.88;;;;;;;;;;5031548;28;20451;-68
2022/12/07 00:53:42;;;;;;;14.13;8.70;;;;;;;;;;5031748;28;20183;-65
2022/12/07 00:56:20;;;;;;;11.23;8.35;;;;;;;;;;5031578;28;20049;-66
2022/12/07 00:58:57;;;;;;;12.88;8.30;;;;;;;;;;5012027;28;20053;-66
2022/12/07 01:01:24;;;;;;;13.25;8.98;;;;;;;;;;5011907;28;20421;-66
2022/12/07 01:03:51;;;;;;;11.07;8.43;;;;;;;;;;5012661;28;20081;-67
2022/12/07 01:06:19;;;;;;;13.25;9.38;;;;;;;;;;5011761;28;20041;-66
2022/12/07 01:08:46;;;;;;;13.50;9.35;;;;;;;;;;5035129;28;20106;-65
2022/12/07 01:11:15;;;;;;;11.00;8.27;;;;;;;;;;5035134;28;20088;-66
2022/12/07 01:13:42;;;;;;;12.07;9.77;;;;;;;;;;5025578;28;20389;-66
2022/12/07 01:16:10;;;;;;;13.60;9.48;;;;;;;;;;5015514;28;20085;-66
2022/12/07 01:18:37;;;;;;;13.20;8.60;;;;;;;;;;5015191;28;20049;-67
2022/12/07 01:21:13;;;;;;;11.85;8.95;;;;;;;;;;5015086;28;20054;-66
2022/12/07 01:23:40;;;;;;;11.05;8.85;;;;;;;;;;5015418;28;20120;-67
2022/12/07 01:26:10;;;;;;;11.82;9.43;;;;;;;;;;5015339;28;20497;-66
2022/12/07 01:28:37;;;;;;;10.07;8.73;;;;;;;;;;5008156;28;20056;-66
2022/12/07 01:31:12;;;;;;;11.90;9.50;;;;;;;;;;5034706;28;20057;-66
2022/12/07 01:33:39;;;;;;;12.48;9.38;;;;;;;;;;5034603;28;20456;-66
2022/12/07 01:36:12;;;;;;;14.45;9.25;;;;;;;;;;5034768;28;20053;-67
2022/12/07 01:38:39;;;;;;;13.07;9.52;;;;;;;;;;5017205;28;20045;-66
2022/12/07 01:41:06;;;;;;;10.35;8.55;;;;;;;;;;5034589;28;20053;-66
2022/12/07 01:43:33;;;;;;;11.27;9.00;;;;;;;;;;5034020;28;20057;-66
2022/12/07 01:46:00;;;;;;;12.55;9.57;;;;;;;;;;5034459;28;20491;-66
2022/12/07 01:48:34;;;;;;;14.55;9.88;;;;;;;;;;5034084;28;20500;-67
2022/12/07 01:51:04;;;;;;;13.40;9.60;;;;;;;;;;5016964;28;20053;-65
2022/12/07 01:53:30;;;;;;;12.90;9.82;;;;;;;;;;5000818;28;20085;-66
2022/12/07 01:55:57;;;;;;;16.55;10.05;;;;;;;;;;5001391;28;20049;-65
2022/12/07 01:58:24;;;;;;;12.68;8.63;;;;;;;;;;4981541;28;20097;-67
2022/12/07 02:00:50;;;;;;;13.40;9.85;;;;;;;;;;5014586;28;20112;-67
2022/12/07 02:03:38;;;;;;;13.85;9.60;;;;;;;;;;4996936;28;20050;-68
2022/12/07 02:06:06;;;;;;;13.10;9.68;;;;;;;;;;4981250;28;20119;-67
2022/12/07 02:08:33;;;;;;;12.38;9.05;;;;;;;;;;5014423;28;20053;-67
2022/12/07 02:11:01;;;;;;;14.73;9.98;;;;;;;;;;5014328;28;20081;-67
2022/12/07 02:13:30;;;;;;;11.88;8.55;;;;;;;;;;5014376;28;20421;-65
2022/12/07 02:16:02;;;;;;;11.05;8.70;;;;;;;;;;4995847;28;20058;-65
2022/12/07 02:18:49;;;;;;;16.33;8.82;;;;;;;;;;5014402;28;20053;-66
2022/12/07 02:21:40;;;;;;;12.73;9.68;;;;;;;;;;5016235;28;20050;-67
2022/12/07 02:24:25;;;;;;;12.45;8.82;;;;;;;;;;4998324;28;20046;-66
2022/12/07 02:26:58;;;;;;;11.90;8.85;;;;;;;;;;5013971;28;20045;-66
2022/12/07 02:29:26;;;;;;;12.73;9.40;;;;;;;;;;5014219;28;20104;-67
2022/12/07 02:32:22;;;;;;;13.23;9.57;;;;;;;;;;4979283;28;20100;-67
2022/12/07 02:35:13;;;;;;;11.35;8.45;;;;;;;;;;4997590;28;20111;-67
2022/12/07 02:37:59;;;;;;;12.95;10.25;;;;;;;;;;5033963;28;20207;-67
2022/12/07 02:40:40;;;;;;;11.23;9.65;;;;;;;;;;5016011;28;20095;-67
2022/12/07 02:43:07;;;;;;;10.60;8.63;;;;;;;;;;5033816;28;20103;-66
2022/12/07 02:45:35;;;;;;;11.32;9.65;;;;;;;;;;5033781;28;20049;-66
2022/12/07 02:48:02;;;;;;;11.50;9.00;;;;;;;;;;5000116;28;20508;-68
2022/12/07 02:50:29;;;;;;;12.77;9.60;;;;;;;;;;5032845;28;20068;-67
2022/12/07 02:52:55;;;;;;;10.60;8.55;;;;;;;;;;5032928;28;20104;-67
2022/12/07 02:55:25;;;;;;;12.23;8.55;;;;;;;;;;5015936;28;20053;-66
2022/12/07 02:58:29;;;;;;;12.10;9.52;;;;;;;;;;5000108;28;20081;-65
2022/12/07 03:01:09;;;;;;;11.25;8.73;;;;;;;;;;5033179;28;20072;-67
2022/12/07 03:03:35;;;;;;;11.48;8.88;;;;;;;;;;4995788;28;20460;-67
2022/12/07 03:06:31;;;;;;;12.20;8.98;;;;;;;;;;4996110;28;20104;-67
2022/12/07 03:09:15;;;;;;;10.57;9.02;;;;;;;;;;4997983;28;20050;-67
2022/12/07 03:11:53;;;;;;;12.10;8.77;;;;;;;;;;4979534;28;20568;-68
2022/12/07 03:14:33;;;;;;;12.90;9.20;;;;;;;;;;4995953;28;20046;-68
2022/12/07 03:17:13;;;;;;;11.65;9.40;;;;;;;;;;4999753;28;20067;-67
2022/12/07 03:19:40;;;;;;;12.25;8.68;;;;;;;;;;5015284;28;20053;-67
2022/12/07 03:22:08;;;;;;;12.00;8.88;;;;;;;;;;5032374;28;20091;-67
2022/12/07 03:24:47;;;;;;;12.10;8.80;;;;;;;;;;4998974;28;20049;-66
2022/12/07 03:27:25;;;;;;;12.68;9.43;;;;;;;;;;5014837;28;20469;-67
2022/12/07 03:30:05;;;;;;;11.45;8.30;;;;;;;;;;4999570;28;20049;-68
2022/12/07 03:32:42;;;;;;;11.75;8.50;;;;;;;;;;4998490;28;20046;-67
2022/12/07 03:35:39;;;;;;;11.15;8.75;;;;;;;;;;5013025;28;20456;-67
2022/12/07 03:38:16;;;;;;;13.52;8.75;;;;;;;;;;4998245;28;20092;-67
2022/12/07 03:41:03;;;;;;;12.25;8.07;;;;;;;;;;4982107;28;20088;-67
2022/12/07 03:43:29;;;;;;;13.88;9.20;;;;;;;;;;4996572;28;20069;-66
2022/12/07 03:46:27;;;;;;;11.70;9.23;;;;;;;;;;4979292;28;20104;-67
2022/12/07 03:49:11;;;;;;;11.35;8.15;;;;;;;;;;5012255;28;20103;-67
2022/12/07 03:51:56;;;;;;;12.38;8.25;;;;;;;;;;4995070;28;20528;-67
2022/12/07 03:54:26;;;;;;;11.18;8.45;;;;;;;;;;5012307;28;20042;-67
2022/12/07 03:56:53;;;;;;;14.45;9.57;;;;;;;;;;4984877;28;20053;-68
2022/12/07 03:59:19;;;;;;;11.93;8.63;;;;;;;;;;4998282;28;20080;-68
2022/12/07 04:01:55;;;;;;;12.27;7.90;;;;;;;;;;4998064;28;20053;-67
2022/12/07 04:04:23;;;;;;;12.77;8.98;;;;;;;;;;5031858;28;20107;-66
2022/12/07 04:06:50;;;;;;;12.32;8.98;;;;;;;;;;5014824;28;20080;-68
2022/12/07 04:09:16;;;;;;;13.13;9.23;;;;;;;;;;5031952;28;20056;-67
2022/12/07 04:11:43;;;;;;;11.93;8.40;;;;;;;;;;5031728;28;20563;-68
2022/12/07 04:14:18;;;;;;;14.57;9.20;;;;;;;;;;5031611;28;20079;-68
2022/12/07 04:16:50;;;;;;;13.60;9.88;;;;;;;;;;5032430;28;20488;-68
2022/12/07 04:19:18;;;;;;;14.38;10.02;;;;;;;;;;5015360;28;20397;-67
2022/12/07 04:21:45;;;;;;;13.27;9.68;;;;;;;;;;5031665;28;20145;-67
2022/12/07 04:24:13;;;;;;;14.32;10.05;;;;;;;;;;5031313;28;20053;-67
2022/12/07 04:26:41;;;;;;;14.68;9.68;;;;;;;;;;4994771;28;20115;-67
2022/12/07 04:29:08;;;;;;;14.60;10.00;;;;;;;;;;5012190;28;20566;-67
2022/12/07 04:31:35;;;;;;;17.55;10.48;;;;;;;;;;5011899;28;20108;-67
2022/12/07 04:34:02;;;;;;;14.95;10.30;;;;;;;;;;5011929;28;20500;-65
2022/12/07 04:36:29;;;;;;;15.20;10.98;;;;;;;;;;5011963;28;20500;-68
2022/12/07 04:38:56;;;;;;;15.68;10.73;;;;;;;;;;5019407;28;20103;-68
2022/12/07 04:41:26;;;;;;;15.02;10.55;;;;;;;;;;5035472;28;20045;-68
2022/12/07 04:44:01;;;;;;;17.40;10.65;;;;;;;;;;5035923;28;20045;-67
2022/12/07 04:46:29;;;;;;;13.75;9.85;;;;;;;;;;5035515;28;20049;-68
2022/12/07 04:48:56;;;;;;;15.20;9.95;;;;;;;;;;5018059;28;20415;-67
2022/12/07 04:51:25;;;;;;;16.23;11.32;;;;;;;;;;5045994;23;20050;-69
2022/12/07 04:53:52;;;;;;;16.90;10.98;;;;;;;;;;4997898;28;20073;-68
2022/12/07 04:56:18;;;;;;;14.88;9.98;;;;;;;;;;4982002;28;20504;-67
2022/12/07 04:58:46;;;;;;;14.85;10.30;;;;;;;;;;5015596;28;20054;-66
2022/12/07 05:01:14;;;;;;;14.15;9.65;;;;;;;;;;4984627;28;20050;-68
2022/12/07 05:03:40;;;;;;;16.05;10.55;;;;;;;;;;4994933;28;20046;-67
2022/12/07 05:06:08;;;;;;;15.13;10.68;;;;;;;;;;4995749;28;20078;-68
2022/12/07 05:08:39;;;;;;;15.18;10.50;;;;;;;;;;4964370;28;20050;-67
2022/12/07 05:11:06;;;;;;;12.88;9.77;;;;;;;;;;4978456;28;20050;-67
2022/12/07 05:13:34;;;;;;;14.52;10.13;;;;;;;;;;4994979;28;20058;-66
2022/12/07 05:16:00;;;;;;;14.50;10.68;;;;;;;;;;4994750;28;20124;-68
2022/12/07 05:18:27;;;;;;;15.45;10.82;;;;;;;;;;4984599;28;20047;-68
2022/12/07 05:20:54;;;;;;;17.17;11.00;;;;;;;;;;4982556;28;20097;-67
2022/12/07 05:23:20;;;;;;;18.02;11.85;;;;;;;;;;4996128;28;20050;-67
2022/12/07 05:25:47;;;;;;;17.15;11.90;;;;;;;;;;4995879;28;20108;-68
2022/12/07 05:28:13;;;;;;;18.05;11.55;;;;;;;;;;4995782;28;20086;-66
2022/12/07 05:30:40;;;;;;;17.35;11.95;;;;;;;;;;4978111;28;20050;-68
2022/12/07 05:33:07;;;;;;;19.10;12.43;;;;;;;;;;4978156;28;20051;-67
2022/12/07 05:35:33;;;;;;;18.73;11.95;;;;;;;;;;4995338;28;20050;-68
2022/12/07 05:38:01;;;;;;;20.88;12.48;;;;;;;;;;4995654;28;20463;-67
2022/12/07 05:40:28;;;;;;;19.02;12.88;;;;;;;;;;4993993;28;20070;-68
2022/12/07 05:42:55;;;;;;;18.33;12.57;;;;;;;;;;4995141;28;20050;-67
2022/12/07 05:45:29;;;;;;;19.50;13.07;;;;;;;;;;4979210;28;20142;-68
2022/12/07 05:47:56;;;;;;;18.67;13.15;;;;;;;;;;4995931;28;20050;-68
2022/12/07 05:50:22;;;;;;;17.30;12.20;;;;;;;;;;4993592;28;20190;-67
2022/12/07 05:52:49;;;;;;;19.73;13.32;;;;;;;;;;4995233;28;20050;-68
2022/12/07 05:55:16;;;;;;;17.92;11.43;;;;;;;;;;4995158;28;20086;-68
2022/12/07 05:59:22;;;;;;;18.92;11.63;;;;;;;;;;4995135;28;20118;-66
2022/12/07 06:00:32;;;;;;;17.10;11.68;;;;;;;;;;4994480;28;20116;-68
2022/12/07 06:02:59;;;;;;;16.05;11.70;;;;;;;;;;4976839;28;20046;-66
2022/12/07 06:05:26;;;;;;;16.13;12.50;;;;;;;;;;4977828;28;20053;-67
2022/12/07 06:07:52;;;;;;;17.63;12.55;;;;;;;;;;4993815;28;20050;-68
2022/12/07 06:10:19;;;;;;;15.88;10.98;;;;;;;;;;4994727;28;20050;-67
2022/12/07 06:12:46;;;;;;;16.52;11.00;;;;;;;;;;4994423;28;20058;-68
2022/12/07 06:15:13;;;;;;;15.38;11.48;;;;;;;;;;4994488;28;20054;-69
2022/12/07 06:17:39;;;;;;;14.40;10.55;;;;;;;;;;4985528;28;20050;-67
2022/12/07 06:20:07;;;;;;;15.93;11.35;;;;;;;;;;4986423;28;20567;-68
2022/12/07 06:22:33;;;;;;;16.00;11.70;;;;;;;;;;5025917;28;20117;-67
2022/12/07 06:25:01;;;;;;;15.75;11.15;;;;;;;;;;5014177;28;20534;-68
2022/12/07 06:27:35;;;;;;;18.17;12.43;;;;;;;;;;4994774;28;20050;-67
2022/12/07 06:30:06;;;;;;;15.90;11.90;;;;;;;;;;4975046;28;20054;-67
2022/12/07 06:32:33;;;;;;;16.63;11.57;;;;;;;;;;4958440;28;20458;-68
2022/12/07 06:35:00;;;;;;;17.90;12.15;;;;;;;;;;4974965;28;20098;-67
2022/12/07 06:37:27;;;;;;;16.77;10.88;;;;;;;;;;4942002;28;20348;-69
2022/12/07 06:39:53;;;;;;;15.82;10.98;;;;;;;;;;4957522;28;20473;-67
2022/12/07 06:42:21;;;;;;;14.35;10.20;;;;;;;;;;4987504;28;20078;-68
2022/12/07 06:44:47;;;;;;;15.68;11.18;;;;;;;;;;4994281;28;20109;-68
2022/12/07 06:47:14;;;;;;;13.10;9.57;;;;;;;;;;4976874;28;20077;-67
2022/12/07 06:50:00;;;;;;;14.68;10.77;;;;;;;;;;4993861;28;20050;-67
2022/12/07 06:52:27;;;;;;;15.65;10.48;;;;;;;;;;4993474;28;20050;-66
2022/12/07 06:54:54;;;;;;;17.83;11.07;;;;;;;;;;4993750;28;20043;-67
2022/12/07 06:57:22;;;;;;;13.35;9.50;;;;;;;;;;4976629;28;20085;-68
2022/12/07 06:59:49;;;;;;;15.60;11.45;;;;;;;;;;4960822;28;20117;-68
2022/12/07 07:02:15;;;;;;;16.92;10.60;;;;;;;;;;4992989;28;20058;-69
2022/12/07 07:04:42;;;;;;;14.27;9.52;;;;;;;;;;4993786;28;20133;-69
2022/12/07 07:07:09;;;;;;;12.25;8.80;;;;;;;;;;4992390;28;20058;-71
2022/12/07 07:09:35;;;;;;;14.35;10.13;;;;;;;;;;4992531;28;20100;-70
2022/12/07 07:12:02;;;;;;;13.57;9.82;;;;;;;;;;4976227;28;20497;-68
2022/12/07 07:14:29;;;;;;;13.65;9.93;;;;;;;;;;4993764;28;20089;-69
2022/12/07 07:16:55;;;;;;;14.65;9.27;;;;;;;;;;4991832;28;20268;-69
2022/12/07 07:19:22;;;;;;;13.95;10.07;;;;;;;;;;4991572;28;20500;-68
2022/12/07 07:21:49;;;;;;;14.50;8.73;;;;;;;;;;4991529;28;20138;-68
2022/12/07 07:24:15;;;;;;;12.48;8.95;;;;;;;;;;4991178;28;20085;-68
2022/12/07 07:26:42;;;;;;;12.43;8.82;;;;;;;;;;4990328;28;20113;-69
2022/12/07 07:29:08;;;;;;;13.20;8.93;;;;;;;;;;5006435;28;20154;-65
2022/12/07 07:31:35;;;;;;;13.55;9.45;;;;;;;;;;4991158;28;20055;-68
2022/12/07 07:34:02;;;;;;;10.93;7.72;;;;;;;;;;4991167;28;20050;-67
2022/12/07 07:36:28;;;;;;;10.27;7.68;;;;;;;;;;4991347;28;20140;-68
2022/12/07 07:38:55;;;;;;;9.95;7.15;;;;;;;;;;4991402;28;20142;-67
2022/12/07 07:41:21;;;;;;;12.10;6.95;;;;;;;;;;4991169;28;20057;-68
2022/12/07 07:43:48;;;;;;;14.18;8.52;;;;;;;;;;4990927;28;20050;-68
2022/12/07 07:46:15;;;;;;;10.98;7.72;;;;;;;;;;4991283;28;20085;-67
2022/12/07 07:48:41;;;;;;;9.00;7.10;;;;;;;;;;4991224;28;20081;-67
2022/12/07 07:51:08;;;;;;;10.18;6.45;;;;;;;;;;4990613;28;20137;-69
2022/12/07 07:53:35;;;;;;;9.35;7.03;;;;;;;;;;4991235;28;20078;-68
2022/12/07 07:56:01;;;;;;;10.70;8.20;;;;;;;;;;4989136;28;20050;-67
2022/12/07 07:58:28;;;;;;;12.30;9.13;;;;;;;;;;4973878;28;20077;-68
2022/12/07 08:00:54;;;;;;;11.82;7.55;;;;;;;;;;4989604;28;20093;-69
2022/12/07 08:03:21;;;;;;;10.88;7.22;;;;;;;;;;4989481;28;20065;-67
2022/12/07 08:05:48;;;;;;;10.65;7.25;;;;;;;;;;4989766;28;20046;-68
2022/12/07 08:08:15;;;;;;;10.93;6.45;;;;;;;;;;4990976;28;20100;-67
2022/12/07 08:10:41;;;;;;;10.15;7.25;;;;;;;;;;4990413;28;20054;-67
2022/12/07 08:13:11;;;;;;;12.15;6.65;;;;;;;;;;4990182;28;20438;-68
2022/12/07 08:15:38;;;;;;;8.40;6.40;;;;;;;;;;4990500;28;20097;-69
2022/12/07 08:18:05;;;;;;;9.40;6.60;;;;;;;;;;4989773;28;20058;-70
2022/12/07 08:20:32;;;;;;;9.93;6.47;;;;;;;;;;4973625;28;20054;-68
2022/12/07 08:22:59;;;;;;;8.55;6.30;;;;;;;;;;4988875;28;20513;-69
2022/12/07 08:25:26;;;;;;;9.60;6.10;;;;;;;;;;4990661;28;20054;-68
2022/12/07 08:27:53;;;;;;;7.00;5.47;;;;;;;;;;4973503;28;20046;-69
2022/12/07 08:30:20;;;;;;;7.00;5.68;;;;;;;;;;4973206;28;20074;-69
2022/12/07 08:32:47;;;;;;;7.03;5.32;;;;;;;;;;4973282;28;20058;-69
2022/12/07 08:35:14;;;;;;;10.40;6.25;;;;;;;;;;4988621;28;20046;-67
2022/12/07 08:37:41;;;;;;;8.15;5.53;;;;;;;;;;4989483;28;20385;-69
2022/12/07 08:40:09;;;;;;;9.00;6.07;;;;;;;;;;4990140;28;20511;-70
2022/12/07 08:42:39;;;;;;;6.70;4.90;;;;;;;;;;4975015;28;20100;-70
2022/12/07 08:45:12;;;;;;;9.35;5.40;;;;;;;;;;4992525;28;20492;-68
2022/12/07 08:47:46;;;;;;;10.27;5.78;;;;;;;;;;4990668;28;20050;-68
2022/12/07 08:50:13;;;;;;;10.40;5.65;;;;;;;;;;4974884;28;20105;-69
2022/12/07 08:52:40;;;;;;;8.15;5.80;;;;;;;;;;4974693;28;20512;-69
2022/12/07 08:55:07;;;;;;;9.70;6.32;;;;;;;;;;4974886;28;20046;-68
2022/12/07 08:57:34;;;;;;;8.15;6.47;;;;;;;;;;4974684;28;20137;-70
2022/12/07 09:00:00;;;;;;;8.73;6.22;;;;;;;;;;4959226;28;20481;-68
2022/12/07 09:02:28;;;;;;;7.00;5.47;;;;;;;;;;4974832;28;20054;-69
2022/12/07 09:04:54;;;;;;;6.50;5.25;;;;;;;;;;4975065;28;20126;-69
2022/12/07 09:07:21;;;;;;;10.25;6.22;;;;;;;;;;4974846;28;20050;-69
2022/12/07 09:09:47;;;;;;;18.15;9.38;;;;;;;;;;4992022;28;20060;-70
2022/12/07 09:12:16;;;;;;;17.67;8.70;;;;;;;;;;4991409;28;20065;-70
2022/12/07 09:14:42;;;;;;;10.88;6.60;;;;;;;;;;4991923;28;20081;-69
2022/12/07 09:19:50;;;;;;;10.00;6.15;;;;;;;;;;5318501;23;20076;-66
2022/12/07 09:22:17;;;;;;;11.73;5.78;;;;;;;;;;5091522;28;20083;-65
2022/12/07 09:24:45;;;;;;;11.65;6.28;;;;;;;;;;5092011;28;20093;-65
2022/12/07 09:27:12;;;;;;;10.45;5.03;;;;;;;;;;5095414;28;20071;-65
2022/12/07 09:29:38;;;;;;;12.00;5.85;;;;;;;;;;5076830;28;20049;-66
2022/12/07 09:32:05;;;;;;;13.88;6.70;;;;;;;;;;5082026;28;20093;-70
2022/12/07 09:34:37;;;;;;;8.20;5.13;;;;;;;;;;5096942;22;20140;-68
2022/12/07 09:37:04;;;;;;;10.40;7.45;;;;;;;;;;5048081;28;20065;-70
2022/12/07 09:39:31;;;;;;;8.35;5.70;;;;;;;;;;5048090;28;20098;-69
2022/12/07 09:41:58;;;;;;;8.65;5.55;;;;;;;;;;5050756;28;20045;-71
2022/12/07 09:44:26;;;;;;;9.07;7.00;;;;;;;;;;5047216;28;20075;-71
2022/12/07 09:46:52;;;;;;;6.72;5.40;;;;;;;;;;5018792;28;20087;-71
2022/12/07 09:49:22;;;;;;;7.47;5.03;;;;;;;;;;5035379;28;20073;-72
2022/12/07 09:51:57;;;;;;;7.55;4.72;;;;;;;;;;5018898;28;20048;-71
2022/12/07 09:54:23;;;;;;;5.85;4.78;;;;;;;;;;5016227;28;20452;-64
2022/12/07 09:56:50;;;;;;;6.60;4.13;;;;;;;;;;5054481;28;20526;-70
2022/12/07 09:59:18;;;;;;;6.22;3.95;;;;;;;;;;5052694;28;20550;-69
2022/12/07 10:01:48;;;;;;;7.45;3.80;;;;;;;;;;5018404;28;20048;-69
2022/12/07 10:04:16;;;;;;;5.88;4.10;;;;;;;;;;5034974;28;20053;-67
2022/12/07 10:06:43;;;;;;;6.50;3.92;;;;;;;;;;5035138;28;20115;-64
2022/12/07 10:09:14;;;;;;;4.72;3.80;;;;;;;;;;5035281;28;20549;-65
2022/12/07 10:12:02;;;;;;;5.80;4.03;;;;;;;;;;5014830;28;20049;-66
2022/12/07 10:14:30;;;;;;;6.55;3.72;;;;;;;;;;5021586;28;20098;-67
2022/12/07 10:17:31;;;;;;;6.50;3.38;;;;;;;;;;5022875;28;20076;-67
2022/12/07 10:20:24;;;;;;;4.65;3.47;;;;;;;;;;5034643;28;20045;-71
2022/12/07 10:22:57;;;;;;;6.25;3.53;;;;;;;;;;5033152;28;20048;-70
2022/12/07 10:25:32;;;;;;;5.30;3.80;;;;;;;;;;5036548;28;20053;-75
2022/12/07 10:27:59;;;;;;;5.75;4.13;;;;;;;;;;5034512;28;20056;-69
2022/12/07 10:30:26;;;;;;;6.70;4.43;;;;;;;;;;5051462;28;20083;-70
2022/12/07 10:32:53;;;;;;;6.22;3.60;;;;;;;;;;5034893;28;20060;-70
2022/12/07 10:35:28;;;;;;;7.43;3.78;;;;;;;;;;5051388;28;20037;-70
2022/12/07 10:37:57;;;;;;;6.18;3.58;;;;;;;;;;5044563;28;20519;-73
2022/12/07 10:40:35;;;;;;;5.55;3.92;;;;;;;;;;5018307;28;20135;-67
2022/12/07 10:43:18;;;;;;;5.05;4.05;;;;;;;;;;5052319;28;20049;-72
2022/12/07 10:46:07;;;;;;;5.95;4.40;;;;;;;;;;5009292;28;20412;-67
2022/12/07 10:49:03;;;;;;;8.75;4.22;;;;;;;;;;5033243;28;20068;-68
2022/12/07 10:51:36;;;;;;;7.68;4.65;;;;;;;;;;5021693;28;20129;-68
2022/12/07 10:54:23;;;;;;;6.82;3.92;;;;;;;;;;5050603;28;20057;-71
2022/12/07 10:57:08;;;;;;;7.75;4.22;;;;;;;;;;5051397;28;20393;-71
2022/12/07 10:59:55;;;;;;;7.55;4.75;;;;;;;;;;5033210;28;20159;-68
2022/12/07 11:02:22;;;;;;;7.38;5.03;;;;;;;;;;5033536;28;20053;-67
2022/12/07 11:04:52;;;;;;;6.53;5.00;;;;;;;;;;5051706;28;20462;-69
2022/12/07 11:07:18;;;;;;;8.15;4.47;;;;;;;;;;5051373;28;20094;-66
2022/12/07 11:10:33;;;;;;;5.97;4.03;;;;;;;;;;5051027;28;20469;-72
2022/12/07 11:13:12;;;;;;;6.05;3.63;;;;;;;;;;5033479;28;20396;-67
2022/12/07 11:16:14;;;;;;;5.65;3.55;;;;;;;;;;5047440;28;20053;-68
2022/12/07 11:18:48;;;;;;;5.75;3.63;;;;;;;;;;5029946;28;20048;-67
2022/12/07 11:21:18;;;;;;;4.97;3.30;;;;;;;;;;5031861;28;20123;-66
2022/12/07 11:24:16;;;;;;;4.50;3.05;;;;;;;;;;5049447;28;20081;-67
2022/12/07 11:26:57;;;;;;;4.93;3.65;;;;;;;;;;5030555;28;20057;-66
2022/12/07 11:29:51;;;;;;;5.97;3.50;;;;;;;;;;5031941;28;20072;-67
2022/12/07 11:32:27;;;;;;;4.20;3.33;;;;;;;;;;5048352;28;20509;-68
2022/12/07 11:34:59;;;;;;;5.88;4.15;;;;;;;;;;5045469;28;20126;-68
2022/12/07 11:37:37;;;;;;;7.22;4.00;;;;;;;;;;5048953;28;20140;-68
2022/12/07 11:40:27;;;;;;;5.38;3.95;;;;;;;;;;5015367;28;20136;-66
2022/12/07 11:43:13;;;;;;;5.93;4.43;;;;;;;;;;5004062;28;20049;-68
2022/12/07 11:45:44;;;;;;;6.30;4.63;;;;;;;;;;5046797;28;20496;-68
2022/12/07 11:48:39;;;;;;;7.28;4.75;;;;;;;;;;5004297;28;20044;-70
2022/12/07 11:51:07;;;;;;;6.22;4.40;;;;;;;;;;5033097;28;20049;-73
2022/12/07 11:53:49;;;;;;;12.77;5.60;;;;;;;;;;5032422;28;20056;-70
2022/12/07 11:56:18;;;;;;;8.50;5.70;;;;;;;;;;5014658;28;20064;-69
2022/12/07 11:58:50;;;;;;;8.65;6.60;;;;;;;;;;5016820;28;20103;-70
2022/12/07 12:01:33;;;;;;;8.98;5.47;;;;;;;;;;5050553;28;20114;-70
2022/12/07 12:04:09;;;;;;;12.65;6.40;;;;;;;;;;5029930;28;20880;-69
2022/12/07 12:06:41;;;;;;;9.13;6.43;;;;;;;;;;5045597;28;20041;-72
2022/12/07 12:09:22;;;;;;;10.50;7.03;;;;;;;;;;5032371;28;20084;-69
2022/12/07 12:12:10;;;;;;;8.30;6.75;;;;;;;;;;5014548;28;20139;-69
2022/12/07 12:15:31;;;;;;;10.02;6.57;;;;;;;;;;5049577;28;20068;-71
2022/12/07 12:18:16;;;;;;;12.80;7.05;;;;;;;;;;5027292;28;20679;-70
2022/12/07 12:20:45;;;;;;;11.10;7.28;;;;;;;;;;5049772;28;20045;-71
2022/12/07 12:23:29;;;;;;;11.10;7.35;;;;;;;;;;5050284;28;20506;-69
2022/12/07 12:25:57;;;;;;;9.63;6.53;;;;;;;;;;5023336;28;20515;-70
2022/12/07 12:28:29;;;;;;;9.45;7.15;;;;;;;;;;5015784;28;20051;-73
2022/12/07 12:31:11;;;;;;;11.85;7.13;;;;;;;;;;5050196;28;20102;-71
2022/12/07 12:33:42;;;;;;;11.38;7.50;;;;;;;;;;5015017;28;20048;-72
2022/12/07 12:36:15;;;;;;;9.13;6.40;;;;;;;;;;5016102;28;20549;-67
2022/12/07 12:38:58;;;;;;;8.23;7.10;;;;;;;;;;5046269;28;20455;-67
2022/12/07 12:41:38;;;;;;;10.38;7.63;;;;;;;;;;5033357;28;20053;-67
2022/12/07 12:44:33;;;;;;;9.63;6.85;;;;;;;;;;5050212;28;20163;-68
2022/12/07 12:47:04;;;;;;;8.90;5.88;;;;;;;;;;5042043;28;20507;-68
2022/12/07 12:49:39;;;;;;;8.50;5.35;;;;;;;;;;5015340;28;20048;-72
2022/12/07 12:52:15;;;;;;;6.82;4.90;;;;;;;;;;5030907;28;20102;-73
2022/12/07 12:55:08;;;;;;;10.05;6.20;;;;;;;;;;5049927;28;20590;-72
2022/12/07 12:57:35;;;;;;;7.50;5.80;;;;;;;;;;5049119;28;20045;-69
2022/12/07 13:00:23;;;;;;;8.20;5.82;;;;;;;;;;5032943;28;20052;-69
2022/12/07 13:02:54;;;;;;;8.95;5.85;;;;;;;;;;5035951;28;20055;-72
2022/12/07 13:05:23;;;;;;;9.05;5.70;;;;;;;;;;5011787;28;20045;-69
2022/12/07 13:08:15;;;;;;;7.53;5.55;;;;;;;;;;5021003;28;20132;-69
2022/12/07 13:10:46;;;;;;;8.00;5.88;;;;;;;;;;5026117;28;20091;-72
2022/12/07 13:15:49;;;;;;;9.98;6.82;;;;;;;;;;5053187;28;20103;-67
2022/12/07 13:18:36;;;;;;;10.32;6.80;;;;;;;;;;5053062;28;20403;-67
2022/12/07 13:21:09;;;;;;;9.35;6.88;;;;;;;;;;5013838;28;20057;-67
2022/12/07 13:23:39;;;;;;;9.93;7.10;;;;;;;;;;5053556;28;20049;-68
2022/12/07 13:26:32;;;;;;;9.43;6.70;;;;;;;;;;5032706;28;20076;-67
2022/12/07 13:29:20;;;;;;;10.85;6.95;;;;;;;;;;5052834;28;20060;-69
2022/12/07 13:31:54;;;;;;;10.93;6.93;;;;;;;;;;5034800;28;20179;-67
2022/12/07 13:34:38;;;;;;;12.10;7.95;;;;;;;;;;5017695;28;20046;-66
2022/12/07 13:37:16;;;;;;;12.57;8.07;;;;;;;;;;5038232;28;20044;-69
2022/12/07 13:39:50;;;;;;;10.65;7.45;;;;;;;;;;5016783;28;20367;-68
2022/12/07 13:42:31;;;;;;;13.15;8.73;;;;;;;;;;5033955;28;20195;-64
2022/12/07 13:44:59;;;;;;;11.50;7.68;;;;;;;;;;5034781;28;20492;-65
2022/12/07 13:47:44;;;;;;;10.73;7.97;;;;;;;;;;5019202;28;20084;-65
2022/12/07 13:50:28;;;;;;;12.18;8.15;;;;;;;;;;5037123;28;20052;-64
2022/12/07 13:52:56;;;;;;;15.82;8.43;;;;;;;;;;5053407;28;20466;-64
2022/12/07 13:55:23;;;;;;;13.75;7.63;;;;;;;;;;5019380;28;20079;-64
2022/12/07 13:57:52;;;;;;;19.20;8.57;;;;;;;;;;5034946;28;20052;-66
2022/12/07 14:00:19;;;;;;;14.27;9.15;;;;;;;;;;5018532;28;20470;-65
2022/12/07 14:02:56;;;;;;;22.38;11.82;;;;;;;;;;5035169;28;20107;-66
2022/12/07 14:05:28;;;;;;;23.20;12.90;;;;;;;;;;5052342;28;20044;-65
2022/12/07 14:07:57;;;;;;;15.10;10.00;;;;;;;;;;5018490;28;20057;-65
2022/12/07 14:10:28;;;;;;;12.32;9.32;;;;;;;;;;5052971;28;20091;-67
2022/12/07 14:12:56;;;;;;;11.45;8.45;;;;;;;;;;5035619;28;20044;-65
2022/12/07 14:15:33;;;;;;;12.70;8.23;;;;;;;;;;5001902;28;20477;-70
2022/12/07 14:18:03;;;;;;;11.57;8.30;;;;;;;;;;5022866;28;20052;-64
2022/12/07 14:20:36;;;;;;;16.40;8.60;;;;;;;;;;5032348;28;20094;-65
2022/12/07 14:23:08;;;;;;;14.88;10.13;;;;;;;;;;5016667;28;20118;-66
2022/12/07 14:25:49;;;;;;;13.57;8.73;;;;;;;;;;5017286;28;20415;-65
2022/12/07 14:28:27;;;;;;;13.23;8.45;;;;;;;;;;5031943;28;20055;-64
2022/12/07 14:30:54;;;;;;;12.75;8.98;;;;;;;;;;5046047;28;20144;-64
2022/12/07 14:33:21;;;;;;;14.13;9.27;;;;;;;;;;5049889;28;20511;-67
2022/12/07 14:35:47;;;;;;;12.93;8.63;;;;;;;;;;5031849;28;20044;-64
2022/12/07 14:38:14;;;;;;;16.55;9.70;;;;;;;;;;5048727;28;20087;-64
2022/12/07 14:40:40;;;;;;;11.93;8.57;;;;;;;;;;5032151;28;20052;-66
2022/12/07 14:43:12;;;;;;;12.00;8.30;;;;;;;;;;5031788;28;20091;-66
2022/12/07 14:45:39;;;;;;;11.65;9.02;;;;;;;;;;5015297;28;20075;-64
2022/12/07 14:48:07;;;;;;;12.95;9.25;;;;;;;;;;5032096;28;20048;-64
2022/12/07 14:50:54;;;;;;;15.70;9.75;;;;;;;;;;5034699;28;20063;-64
2022/12/07 14:53:46;;;;;;;15.80;9.30;;;;;;;;;;5034515;28;20049;-65
2022/12/07 14:56:18;;;;;;;13.90;9.10;;;;;;;;;;5016883;28;20103;-65
2022/12/07 14:58:47;;;;;;;12.93;9.50;;;;;;;;;;5049037;28;20072;-64
2022/12/07 15:01:14;;;;;;;12.60;9.07;;;;;;;;;;5033000;28;20049;-65
2022/12/07 15:03:41;;;;;;;14.63;9.65;;;;;;;;;;5049617;28;20110;-66
2022/12/07 15:06:10;;;;;;;14.13;9.90;;;;;;;;;;5049704;28;20041;-66